createdAt,value
2022-12-31T00:02:24.936Z,46.20
2022-12-31T00:04:57.137Z,59.60
2022-12-31T00:07:28.731Z,48.80
2022-12-31T00:09:59.422Z,42.50
2022-12-31T00:12:30.360Z,38.20
2022-12-31T00:15:01.064Z,46.60
2022-12-31T00:17:32.293Z,45.30
2022-12-31T00:20:03.023Z,46.40
2022-12-31T00:22:33.767Z,49.60
2022-12-31T00:25:05.707Z,60.60
2022-12-31T00:27:36.447Z,48.70
2022-12-31T00:30:08.734Z,43.40
2022-12-31T00:32:39.434Z,42.00
2022-12-31T00:35:11.021Z,51.20
2022-12-31T00:37:41.817Z,44.60
2022-12-31T00:40:14.614Z,53.30
2022-12-31T00:42:45.435Z,46.50
2022-12-31T00:45:16.215Z,44.30
2022-12-31T00:47:47.033Z,55.40
2022-12-31T00:50:17.871Z,49.50
2022-12-31T00:52:48.577Z,47.60
2022-12-31T00:55:19.758Z,45.40
2022-12-31T00:57:50.460Z,44.70
2022-12-31T01:00:21.713Z,48.40
2022-12-31T01:02:52.832Z,52.20
2022-12-31T01:05:23.689Z,57.20
2022-12-31T01:07:54.425Z,44.10
2022-12-31T01:10:39.027Z,50.40
2022-12-31T01:13:09.840Z,47.70
2022-12-31T01:15:41.545Z,45.10
2022-12-31T01:18:12.331Z,46.00
2022-12-31T01:20:44.922Z,37.20
2022-12-31T01:23:15.543Z,51.30
2022-12-31T01:25:46.243Z,48.60
2022-12-31T01:28:17.007Z,45.40
2022-12-31T01:30:47.901Z,42.30
2022-12-31T01:33:18.575Z,46.50
2022-12-31T01:35:49.311Z,48.60
2022-12-31T01:38:20.171Z,34.10
2022-12-31T01:40:50.810Z,40.00
2022-12-31T01:43:22.345Z,40.00
2022-12-31T01:45:55.688Z,41.00
2022-12-31T01:48:28.656Z,43.10
2022-12-31T01:50:59.326Z,38.30
2022-12-31T01:53:30.219Z,38.10
2022-12-31T01:56:02.064Z,32.60
2022-12-31T01:58:37.912Z,38.40
2022-12-31T02:01:11.157Z,41.70
2022-12-31T02:03:42.867Z,25.10
2022-12-31T02:06:19.757Z,46.50
2022-12-31T02:08:51.304Z,42.10
2022-12-31T02:11:28.590Z,32.00
2022-12-31T02:14:02.514Z,38.40
2022-12-31T02:16:41.462Z,35.00
2022-12-31T02:19:37.882Z,24.80
2022-12-31T02:22:19.355Z,34.30
2022-12-31T02:25:18.163Z,32.20
2022-12-31T02:28:02.026Z,35.30
2022-12-31T02:30:34.495Z,44.90
2022-12-31T02:33:14.768Z,40.70
2022-12-31T02:35:55.073Z,33.30
2022-12-31T02:38:31.380Z,30.10
2022-12-31T02:41:02.916Z,31.30
2022-12-31T02:43:33.643Z,35.10
2022-12-31T02:46:17.654Z,24.70
2022-12-31T02:48:56.002Z,33.50
2022-12-31T02:51:38.329Z,35.20
2022-12-31T02:54:20.982Z,35.70
2022-12-31T02:57:02.000Z,31.50
2022-12-31T02:59:56.452Z,28.90
2022-12-31T03:02:32.091Z,28.70
2022-12-31T03:05:04.936Z,31.40
2022-12-31T03:07:35.880Z,29.10
2022-12-31T03:10:07.669Z,23.40
2022-12-31T03:12:48.470Z,32.30
2022-12-31T03:15:21.936Z,34.40
2022-12-31T03:18:01.975Z,26.00
2022-12-31T03:20:53.433Z,24.00
2022-12-31T03:23:26.939Z,27.60
2022-12-31T03:25:58.639Z,32.80
2022-12-31T03:28:31.520Z,26.90
2022-12-31T03:31:04.445Z,24.00
2022-12-31T03:33:37.255Z,29.70
2022-12-31T03:36:14.468Z,23.80
2022-12-31T03:38:48.557Z,26.70
2022-12-31T03:41:23.444Z,23.60
2022-12-31T03:43:54.168Z,24.50
2022-12-31T03:46:24.971Z,25.60
2022-12-31T03:48:55.678Z,25.70
2022-12-31T03:51:26.404Z,21.30
2022-12-31T03:53:57.086Z,20.00
2022-12-31T03:56:27.934Z,27.50
2022-12-31T03:58:58.676Z,26.20
2022-12-31T04:01:29.477Z,21.40
2022-12-31T04:04:00.243Z,26.20
2022-12-31T04:06:31.017Z,20.30
2022-12-31T04:09:01.725Z,27.30
2022-12-31T04:11:32.557Z,20.30
2022-12-31T04:14:04.565Z,23.60
2022-12-31T04:16:35.722Z,25.00
2022-12-31T04:19:07.020Z,25.10
2022-12-31T04:21:37.773Z,20.50
2022-12-31T04:24:09.529Z,23.20
2022-12-31T04:26:40.872Z,19.20
2022-12-31T04:29:12.024Z,21.70
2022-12-31T04:31:42.647Z,25.60
2022-12-31T04:34:13.461Z,21.20
2022-12-31T04:36:44.318Z,23.60
2022-12-31T04:39:15.016Z,22.80
2022-12-31T04:41:45.669Z,23.90
2022-12-31T04:44:16.576Z,21.20
2022-12-31T04:46:47.286Z,24.80
2022-12-31T04:49:18.116Z,25.60
2022-12-31T04:51:48.836Z,20.10
2022-12-31T04:54:19.610Z,18.10
2022-12-31T04:56:50.409Z,22.60
2022-12-31T04:59:21.249Z,26.70
2022-12-31T05:01:52.014Z,22.40
2022-12-31T05:04:22.765Z,25.00
2022-12-31T05:06:53.392Z,23.10
2022-12-31T05:09:24.288Z,19.80
2022-12-31T05:11:55.026Z,20.30
2022-12-31T05:14:25.993Z,25.80
2022-12-31T05:16:58.793Z,24.60
2022-12-31T05:19:29.611Z,25.30
2022-12-31T05:22:18.331Z,25.40
2022-12-31T05:24:51.976Z,25.20
2022-12-31T05:27:23.301Z,24.50
2022-12-31T05:29:54.061Z,23.70
2022-12-31T05:32:24.716Z,22.50
2022-12-31T05:34:55.419Z,23.80
2022-12-31T05:37:26.582Z,23.80
2022-12-31T05:39:57.590Z,22.40
2022-12-31T05:42:29.623Z,31.20
2022-12-31T05:45:00.372Z,28.30
2022-12-31T05:47:31.112Z,29.50
2022-12-31T05:50:01.858Z,22.00
2022-12-31T05:52:32.549Z,21.00
2022-12-31T05:55:03.698Z,20.60
2022-12-31T05:57:34.477Z,20.90
2022-12-31T06:00:06.593Z,27.70
2022-12-31T06:02:44.506Z,22.70
2022-12-31T06:05:15.257Z,20.90
2022-12-31T06:07:46.002Z,23.20
2022-12-31T06:10:16.671Z,21.60
2022-12-31T06:12:47.383Z,23.40
2022-12-31T06:15:18.189Z,27.50
2022-12-31T06:17:48.930Z,25.50
2022-12-31T06:20:20.556Z,24.00
2022-12-31T06:22:51.392Z,22.50
2022-12-31T06:25:22.521Z,20.90
2022-12-31T06:27:53.256Z,17.50
2022-12-31T06:30:23.956Z,18.50
2022-12-31T06:32:55.569Z,21.40
2022-12-31T06:35:26.375Z,25.70
2022-12-31T06:37:57.065Z,21.20
2022-12-31T06:40:27.855Z,19.50
2022-12-31T06:43:00.316Z,20.50
2022-12-31T06:45:31.203Z,19.90
2022-12-31T06:48:01.900Z,23.70
2022-12-31T06:50:32.614Z,24.70
2022-12-31T06:53:03.579Z,17.30
2022-12-31T06:55:35.775Z,22.30
2022-12-31T06:58:07.957Z,26.40
2022-12-31T07:00:39.575Z,23.00
2022-12-31T07:03:24.326Z,23.10
2022-12-31T07:05:59.658Z,16.10
2022-12-31T07:08:45.087Z,19.80
2022-12-31T07:11:21.739Z,18.10
2022-12-31T07:14:11.044Z,18.50
2022-12-31T07:16:56.671Z,19.20
2022-12-31T07:22:03.720Z,29.00
2022-12-31T07:24:36.317Z,26.30
2022-12-31T07:27:33.716Z,17.40
2022-12-31T07:30:10.878Z,19.50
2022-12-31T07:33:01.780Z,19.20
2022-12-31T07:35:43.152Z,18.70
2022-12-31T07:38:25.984Z,18.90
2022-12-31T07:41:09.812Z,16.50
2022-12-31T07:43:58.584Z,17.40
2022-12-31T07:46:36.814Z,17.80
2022-12-31T07:49:11.586Z,18.30
2022-12-31T07:51:46.516Z,19.90
2022-12-31T07:54:18.400Z,17.60
2022-12-31T07:56:50.579Z,17.60
2022-12-31T07:59:33.764Z,16.10
2022-12-31T08:02:14.719Z,15.30
2022-12-31T08:04:55.615Z,15.00
2022-12-31T08:07:36.882Z,16.40
2022-12-31T08:10:17.986Z,16.80
2022-12-31T08:12:54.257Z,14.60
2022-12-31T08:15:30.288Z,15.50
2022-12-31T08:18:02.614Z,14.70
2022-12-31T08:20:37.642Z,14.40
2022-12-31T08:23:20.040Z,14.70
2022-12-31T08:26:06.053Z,16.70
2022-12-31T08:28:54.989Z,12.90
2022-12-31T08:31:34.935Z,14.40
2022-12-31T08:34:15.344Z,15.00
2022-12-31T08:36:54.423Z,27.40
2022-12-31T08:39:34.158Z,14.30
2022-12-31T08:42:09.703Z,12.70
2022-12-31T08:44:46.211Z,27.00
2022-12-31T08:47:27.421Z,15.70
2022-12-31T08:49:59.093Z,16.90
2022-12-31T08:52:30.767Z,12.10
2022-12-31T08:55:02.798Z,15.40
2022-12-31T08:57:42.035Z,13.50
2022-12-31T09:00:16.824Z,13.70
2022-12-31T09:03:06.934Z,10.40
2022-12-31T09:05:54.139Z,13.50
2022-12-31T09:08:35.359Z,11.30
2022-12-31T09:11:17.689Z,16.00
2022-12-31T09:14:09.548Z,9.20
2022-12-31T09:16:49.474Z,19.00
2022-12-31T09:19:20.293Z,14.20
2022-12-31T09:21:51.735Z,9.30
2022-12-31T09:24:23.240Z,11.50
2022-12-31T09:27:05.817Z,9.40
2022-12-31T09:29:55.715Z,10.10
2022-12-31T09:32:40.462Z,11.50
2022-12-31T09:35:20.571Z,16.10
2022-12-31T09:37:56.350Z,10.30
2022-12-31T09:40:55.297Z,10.50
2022-12-31T09:44:01.381Z,14.30
2022-12-31T09:49:48.371Z,10.60
2022-12-31T09:52:26.173Z,9.10
2022-12-31T09:55:14.456Z,8.40
2022-12-31T09:57:57.749Z,10.70
2022-12-31T10:00:38.061Z,8.60
2022-12-31T10:03:24.327Z,9.70
2022-12-31T10:06:06.366Z,9.80
2022-12-31T10:08:50.967Z,8.20
2022-12-31T10:11:30.935Z,8.80
2022-12-31T10:14:18.440Z,8.70
2022-12-31T10:17:09.639Z,10.20
2022-12-31T10:20:07.100Z,9.50
2022-12-31T10:23:05.696Z,9.30
2022-12-31T10:26:05.900Z,8.10
2022-12-31T10:28:47.997Z,8.00
2022-12-31T10:31:38.168Z,14.70
2022-12-31T10:34:17.521Z,7.10
2022-12-31T10:36:56.352Z,7.60
2022-12-31T10:39:39.197Z,6.80
2022-12-31T10:42:32.562Z,11.70
2022-12-31T10:45:30.228Z,9.50
2022-12-31T10:48:45.861Z,6.70
2022-12-31T10:52:10.771Z,9.80
2022-12-31T10:55:09.551Z,8.50
2022-12-31T10:58:32.157Z,9.30
2022-12-31T11:01:13.800Z,8.20
2022-12-31T11:04:21.039Z,7.00
2022-12-31T11:07:33.861Z,6.70
2022-12-31T11:10:38.569Z,8.10
2022-12-31T11:13:44.995Z,10.60
2022-12-31T11:16:45.398Z,8.80
2022-12-31T11:19:23.681Z,8.10
2022-12-31T11:22:04.874Z,9.60
2022-12-31T11:24:48.118Z,7.90
2022-12-31T11:27:34.342Z,7.20
2022-12-31T11:30:28.668Z,7.40
2022-12-31T11:33:18.809Z,7.00
2022-12-31T11:36:05.865Z,7.60
2022-12-31T11:38:43.484Z,8.90
2022-12-31T11:41:24.177Z,6.50
2022-12-31T11:44:04.274Z,5.90
2022-12-31T11:46:59.884Z,7.40
2022-12-31T11:49:41.533Z,9.80
2022-12-31T11:52:34.552Z,8.90
2022-12-31T11:55:29.698Z,9.70
2022-12-31T11:58:12.659Z,8.90
2022-12-31T12:00:53.227Z,10.70
2022-12-31T12:03:25.203Z,9.10
2022-12-31T12:05:57.285Z,9.90
2022-12-31T12:08:32.615Z,11.20
2022-12-31T12:11:08.514Z,7.40
2022-12-31T12:13:39.321Z,7.80
2022-12-31T12:16:11.192Z,8.20
2022-12-31T12:18:48.914Z,10.60
2022-12-31T12:21:23.335Z,7.30
2022-12-31T12:24:00.149Z,10.80
2022-12-31T12:26:38.420Z,9.20
2022-12-31T12:29:17.432Z,7.50
2022-12-31T12:31:59.882Z,6.90
2022-12-31T12:34:33.091Z,7.80
2022-12-31T12:37:04.974Z,7.60
2022-12-31T12:39:37.089Z,7.80
2022-12-31T12:42:13.718Z,6.80
2022-12-31T12:44:44.542Z,8.90
2022-12-31T12:47:19.599Z,11.30
2022-12-31T12:49:55.273Z,7.50
2022-12-31T12:52:42.894Z,7.30
2022-12-31T12:55:22.367Z,9.70
2022-12-31T12:58:01.436Z,8.90
2022-12-31T13:00:39.256Z,8.70
2022-12-31T13:04:07.244Z,7.80
2022-12-31T13:06:44.543Z,6.80
2022-12-31T13:09:33.253Z,8.40
2022-12-31T13:12:13.570Z,7.30
2022-12-31T13:14:52.667Z,9.70
2022-12-31T13:18:01.233Z,10.70
2022-12-31T13:20:42.902Z,8.70
